Aktuelles Wetter in Potsdam (Telegrafenberg, 81m)

Tag Datum Stunde Luftdruck Temperatur Luftfeuchte Niederschlag Windrichtung Windgeschw. Windspitzen Wolken
hPa °C % mm ° m/s m/s
Montag, 16.01.2017, 06:30 1022.8 -3.9 94 0.0 NW 8 --- bewölkt
Montag, 16.01.2017, 06:00 1022.3 -2.2 89 ---- NW 13 --- bewölkt
Montag, 16.01.2017, 05:30 1022.3 -2.2 89 0.0 NW 13 --- ---
Montag, 16.01.2017, 05:00 1022.2 -2.0 88 0.0 NW 13 21 stark bewölkt
Montag, 16.01.2017, 04:30 1022.1 -1.9 87 0.0 NW 11 --- ---
Montag, 16.01.2017, 04:00 1021.8 -1.8 86 ---- NW 11 --- bedeckt
Montag, 16.01.2017, 03:30 1021.8 -1.8 86 0.0 NW 11 --- ---
Montag, 16.01.2017, 03:00 1021.6 -2.0 88 0.0 NW 8 17 bedeckt
Montag, 16.01.2017, 02:30 1021.5 -2.0 88 0.0 NW 10 --- ---
Montag, 16.01.2017, 02:00 1021.2 -1.8 85 0.0 NW 8 19 stark bewölkt
Montag, 16.01.2017, 01:30 1021.1 -1.7 85 0.0 NW 10 --- bewölkt
Montag, 16.01.2017, 01:00 1021.0 -1.7 86 0.0 NW 11 21 Schneefall
Montag, 16.01.2017, 00:30 1020.8 -1.5 86 0.0 NW 12 --- Schneefall
Montag, 16.01.2017, 00:00 1020.6 -1.2 87 0.0 NW 10 22 leichter Schneefall
Sonntag, 15.01.2017, 23:30 1020.5 -1.3 91 0.0 NW 10 --- leichter Schneefall
Sonntag, 15.01.2017, 23:00 1020.2 -1.4 93 0.3 NW 10 20 leichter Schneefall
Sonntag, 15.01.2017, 22:30 1019.8 -1.1 94 0.2 NW 8 --- leichter Schneefall
Sonntag, 15.01.2017, 22:00 1019.6 -1.0 92 0.1 NW 12 23 leichter Schneefall
Sonntag, 15.01.2017, 21:30 1019.3 -0.7 88 0.0 NW 12 --- ---
Sonntag, 15.01.2017, 21:00 1019.1 -0.6 87 0.0 NW 13 26 Schneefall
Sonntag, 15.01.2017, 20:30 1018.7 -0.5 85 0.0 NW 14 --- ---
Sonntag, 15.01.2017, 20:00 1018.5 -0.5 85 0.0 NW 14 27 leichter Schneefall